createdAt,value
2023-08-11T00:01:02.889Z,56.15
2023-08-11T00:04:05.274Z,56.19
2023-08-11T00:07:07.492Z,56.14
2023-08-11T00:10:10.461Z,56.25
2023-08-11T00:13:14.276Z,56.19
2023-08-11T00:16:16.536Z,56.12
2023-08-11T00:19:18.678Z,56.17
2023-08-11T00:22:20.790Z,56.26
2023-08-11T00:25:23.404Z,56.33
2023-08-11T00:28:28.161Z,56.38
2023-08-11T00:31:30.692Z,56.35
2023-08-11T00:34:33.194Z,56.43
2023-08-11T00:37:35.583Z,56.44
2023-08-11T00:40:37.931Z,56.48
2023-08-11T00:43:40.205Z,56.43
2023-08-11T00:46:44.051Z,56.40
2023-08-11T00:49:46.174Z,56.48
2023-08-11T00:52:49.065Z,56.43
2023-08-11T00:55:51.561Z,56.32
2023-08-11T00:58:54.397Z,56.42
2023-08-11T01:01:56.608Z,56.42
2023-08-11T01:04:58.703Z,56.41
2023-08-11T01:08:22.985Z,56.44
2023-08-11T01:11:50.243Z,56.42
2023-08-11T01:15:19.296Z,56.42
2023-08-11T01:18:23.517Z,56.45
2023-08-11T01:21:26.876Z,56.50
2023-08-11T01:24:30.902Z,56.52
2023-08-11T01:27:37.542Z,56.51
2023-08-11T01:30:39.702Z,56.55
2023-08-11T01:33:41.793Z,56.57
2023-08-11T01:36:44.316Z,56.55
2023-08-11T01:39:46.417Z,56.48
2023-08-11T01:42:54.956Z,56.53
2023-08-11T01:45:57.920Z,56.54
2023-08-11T01:49:00.956Z,56.57
2023-08-11T01:52:04.451Z,56.55
2023-08-11T01:55:07.643Z,56.54
2023-08-11T01:58:10.796Z,56.58
2023-08-11T02:01:14.320Z,56.53
2023-08-11T02:04:16.457Z,56.45
2023-08-11T02:07:18.542Z,56.49
2023-08-11T02:10:20.614Z,56.54
2023-08-11T02:13:22.705Z,56.53
2023-08-11T02:16:25.023Z,56.52
2023-08-11T02:19:27.123Z,56.45
2023-08-11T02:22:29.286Z,56.48
2023-08-11T02:25:31.498Z,56.46
2023-08-11T02:28:34.174Z,56.48
2023-08-11T02:31:36.259Z,56.40
2023-08-11T02:34:38.491Z,56.42
2023-08-11T02:37:41.865Z,56.41
2023-08-11T02:40:44.091Z,56.36
2023-08-11T02:43:46.615Z,56.39
2023-08-11T02:46:48.885Z,56.42
2023-08-11T02:49:50.959Z,56.41
2023-08-11T02:52:53.068Z,56.37
2023-08-11T02:55:55.443Z,56.33
2023-08-11T02:58:58.357Z,56.32
2023-08-11T03:02:00.485Z,56.32
2023-08-11T03:05:04.733Z,56.26
2023-08-11T03:08:06.839Z,56.29
2023-08-11T03:11:09.568Z,56.26
2023-08-11T03:14:12.265Z,56.26
2023-08-11T03:17:14.721Z,56.24
2023-08-11T03:20:17.166Z,56.20
2023-08-11T03:23:19.485Z,56.18
2023-08-11T03:26:21.660Z,56.14
2023-08-11T03:29:23.743Z,56.14
2023-08-11T03:32:25.850Z,56.05
2023-08-11T03:35:27.989Z,56.05
2023-08-11T03:38:30.085Z,56.10
2023-08-11T03:41:32.227Z,56.12
2023-08-11T03:44:34.967Z,56.07
2023-08-11T03:47:37.116Z,56.08
2023-08-11T03:50:39.368Z,55.95
2023-08-11T03:53:41.502Z,55.97
2023-08-11T03:56:44.786Z,55.87
2023-08-11T03:59:46.877Z,55.89
2023-08-11T04:02:49.574Z,55.81
2023-08-11T04:05:51.899Z,55.83
2023-08-11T04:08:53.985Z,55.81
2023-08-11T04:11:56.056Z,55.78
2023-08-11T04:14:58.427Z,55.75
2023-08-11T04:18:00.812Z,55.74
2023-08-11T04:21:02.944Z,55.80
2023-08-11T04:24:05.343Z,55.81
2023-08-11T04:27:07.478Z,55.86
2023-08-11T04:30:11.440Z,55.82
2023-08-11T04:33:14.126Z,55.83
2023-08-11T04:36:16.265Z,55.87
2023-08-11T04:39:18.417Z,55.85
2023-08-11T04:42:21.245Z,55.92
2023-08-11T04:45:23.645Z,55.87
2023-08-11T04:48:25.755Z,55.87
2023-08-11T04:51:27.831Z,55.90
2023-08-11T04:54:29.938Z,55.93
2023-08-11T04:57:32.115Z,56.00
2023-08-11T05:00:35.251Z,55.97
2023-08-11T05:03:38.260Z,55.89
2023-08-11T05:06:40.404Z,55.94
2023-08-11T05:09:42.518Z,56.00
2023-08-11T05:12:45.591Z,55.97
2023-08-11T05:15:47.648Z,55.90
2023-08-11T05:18:50.273Z,55.83
2023-08-11T05:21:52.435Z,55.36
2023-08-11T05:24:54.618Z,55.67
2023-08-11T05:27:56.788Z,55.69
2023-08-11T05:30:59.015Z,55.32
2023-08-11T05:34:01.295Z,55.39
2023-08-11T05:37:04.651Z,55.34
2023-08-11T05:40:10.893Z,55.36
2023-08-11T05:43:12.995Z,55.35
2023-08-11T05:46:15.191Z,55.39
2023-08-11T05:49:17.343Z,55.29
2023-08-11T05:52:19.491Z,55.23
2023-08-11T05:55:21.608Z,55.24
2023-08-11T05:58:23.957Z,55.42
2023-08-11T06:01:26.168Z,55.49
2023-08-11T06:04:28.284Z,55.59
2023-08-11T06:07:30.818Z,55.45
2023-08-11T06:10:33.248Z,55.42
2023-08-11T06:13:35.527Z,55.37
2023-08-11T06:16:37.741Z,55.27
2023-08-11T06:19:39.881Z,55.28
2023-08-11T06:22:42.154Z,55.13
2023-08-11T06:25:44.284Z,54.89
2023-08-11T06:28:46.385Z,54.44
2023-08-11T06:31:48.875Z,54.22
2023-08-11T06:34:51.038Z,54.03
2023-08-11T06:37:53.191Z,54.05
2023-08-11T06:40:55.389Z,53.97
2023-08-11T06:43:57.705Z,53.94
2023-08-11T06:46:59.778Z,53.78
2023-08-11T06:50:03.264Z,53.90
2023-08-11T06:53:05.385Z,53.68
2023-08-11T06:56:07.506Z,53.70
2023-08-11T06:59:09.627Z,53.77
2023-08-11T07:02:11.766Z,54.22
2023-08-11T07:05:14.090Z,53.75
2023-08-11T07:08:16.915Z,53.54
2023-08-11T07:11:19.204Z,53.46
2023-08-11T07:14:21.340Z,53.30
2023-08-11T07:17:24.308Z,53.25
2023-08-11T07:20:26.563Z,53.20
2023-08-11T07:23:28.658Z,53.18
2023-08-11T07:26:30.809Z,53.06
2023-08-11T07:29:32.974Z,52.88
2023-08-11T07:32:35.077Z,52.79
2023-08-11T07:35:37.224Z,52.74
2023-08-11T07:38:39.324Z,52.46
2023-08-11T07:41:41.415Z,52.37
2023-08-11T07:44:44.667Z,52.59
2023-08-11T07:47:47.265Z,52.07
2023-08-11T07:50:49.645Z,52.19
2023-08-11T07:53:52.511Z,52.41
2023-08-11T07:56:54.765Z,52.40
2023-08-11T07:59:58.380Z,52.30
2023-08-11T08:03:00.575Z,52.21
2023-08-11T08:06:06.254Z,52.46
2023-08-11T08:09:12.684Z,52.28
2023-08-11T08:12:17.100Z,52.37
2023-08-11T08:15:19.688Z,52.16
2023-08-11T08:18:21.774Z,52.30
2023-08-11T08:21:23.849Z,52.24
2023-08-11T08:24:25.965Z,52.12
2023-08-11T08:27:28.377Z,52.15
2023-08-11T08:30:30.829Z,52.17
2023-08-11T08:33:33.109Z,52.18
2023-08-11T08:36:35.378Z,52.13
2023-08-11T08:39:37.553Z,52.07
2023-08-11T08:42:42.144Z,52.00
2023-08-11T08:45:45.852Z,52.14
2023-08-11T08:49:24.019Z,52.02
2023-08-11T08:52:26.177Z,51.99
2023-08-11T08:55:28.381Z,51.78
2023-08-11T08:58:30.560Z,51.76
2023-08-11T09:01:33.503Z,51.97
2023-08-11T09:04:36.073Z,51.73
2023-08-11T09:07:38.466Z,51.80
2023-08-11T09:10:40.616Z,51.87
2023-08-11T09:13:45.980Z,51.85
2023-08-11T09:16:50.017Z,51.84
2023-08-11T09:19:54.086Z,51.78
2023-08-11T09:22:56.518Z,51.77
2023-08-11T09:25:58.731Z,51.82
2023-08-11T09:29:00.863Z,51.88
2023-08-11T09:32:05.501Z,51.82
2023-08-11T09:35:11.098Z,51.75
2023-08-11T09:38:13.544Z,51.72
2023-08-11T09:41:16.507Z,51.91
2023-08-11T09:44:19.872Z,51.87
2023-08-11T09:47:23.045Z,52.09
2023-08-11T09:50:28.465Z,52.05
2023-08-11T09:53:31.134Z,52.24
2023-08-11T09:56:38.471Z,52.44
2023-08-11T09:59:43.545Z,52.58
2023-08-11T10:02:51.254Z,52.50
2023-08-11T10:05:56.862Z,52.60
2023-08-11T10:09:03.076Z,52.40
2023-08-11T10:12:07.558Z,52.43
2023-08-11T10:15:12.868Z,52.53
2023-08-11T10:18:16.795Z,52.74
2023-08-11T10:21:19.834Z,52.66
2023-08-11T10:24:22.400Z,52.66
2023-08-11T10:27:24.911Z,52.60
2023-08-11T10:30:27.210Z,51.98
2023-08-11T10:33:32.667Z,51.69
2023-08-11T10:36:34.971Z,51.91
2023-08-11T10:39:38.695Z,52.17
2023-08-11T10:42:42.399Z,52.48
2023-08-11T10:45:46.587Z,52.62
2023-08-11T10:48:48.980Z,52.41
2023-08-11T10:51:55.216Z,52.49
2023-08-11T10:55:02.146Z,52.35
2023-08-11T10:58:11.589Z,52.00
2023-08-11T11:01:13.714Z,52.18
2023-08-11T11:04:17.900Z,52.11
2023-08-11T11:07:25.986Z,52.22
2023-08-11T11:10:43.511Z,52.43
2023-08-11T11:13:51.391Z,51.79
2023-08-11T11:16:56.069Z,52.20
2023-08-11T11:20:01.016Z,52.17
2023-08-11T11:23:05.878Z,52.20
2023-08-11T11:26:07.987Z,52.32
2023-08-11T11:29:10.071Z,52.07
2023-08-11T11:32:12.971Z,52.09
2023-08-11T11:35:15.366Z,52.11
2023-08-11T11:38:18.420Z,52.14
2023-08-11T11:41:21.360Z,52.19
2023-08-11T11:44:23.493Z,52.17
2023-08-11T11:47:26.086Z,51.79
2023-08-11T11:50:30.392Z,51.94
2023-08-11T11:53:32.648Z,51.86
2023-08-11T11:56:35.417Z,51.93
2023-08-11T11:59:40.942Z,52.17
2023-08-11T12:02:45.030Z,51.58
2023-08-11T12:05:47.262Z,51.85
2023-08-11T12:08:52.507Z,51.62
2023-08-11T12:11:57.746Z,51.49
2023-08-11T12:15:04.783Z,51.78
2023-08-11T12:18:07.480Z,51.77
2023-08-11T12:21:12.807Z,51.59
2023-08-11T12:24:17.747Z,51.53
2023-08-11T12:27:20.356Z,51.49
2023-08-11T12:30:22.485Z,51.73
2023-08-11T12:33:24.825Z,51.62
2023-08-11T12:36:27.027Z,51.56
2023-08-11T12:39:30.376Z,51.37
2023-08-11T12:42:32.531Z,51.22
2023-08-11T12:45:34.665Z,51.43
2023-08-11T12:48:36.763Z,51.46
2023-08-11T12:51:38.859Z,51.14
2023-08-11T12:54:41.033Z,51.01
2023-08-11T12:57:43.109Z,50.69
2023-08-11T13:00:45.300Z,50.50
2023-08-11T13:03:47.705Z,50.66
2023-08-11T13:06:50.045Z,50.70
2023-08-11T13:09:52.134Z,50.53
2023-08-11T13:12:54.225Z,51.14
2023-08-11T13:15:56.928Z,50.82
2023-08-11T13:18:59.039Z,50.82
2023-08-11T13:22:05.607Z,50.84
2023-08-11T13:25:08.512Z,50.28
2023-08-11T13:28:10.641Z,50.23
2023-08-11T13:31:12.796Z,50.27
2023-08-11T13:34:14.915Z,50.39
2023-08-11T13:37:17.041Z,50.28
2023-08-11T13:40:20.107Z,50.27
2023-08-11T13:43:25.497Z,49.64
2023-08-11T13:46:27.734Z,49.82
2023-08-11T13:49:29.799Z,48.88
2023-08-11T13:52:31.962Z,47.89
2023-08-11T13:55:34.267Z,47.78
2023-08-11T13:58:37.170Z,48.32
2023-08-11T14:01:39.269Z,49.09
2023-08-11T14:04:41.401Z,49.49
2023-08-11T14:07:48.259Z,49.89
2023-08-11T14:10:50.510Z,49.98
2023-08-11T14:13:52.700Z,50.35
2023-08-11T14:16:54.836Z,50.42
2023-08-11T14:19:56.924Z,50.19
2023-08-11T14:22:58.993Z,49.72
2023-08-11T14:26:01.140Z,49.49
2023-08-11T14:29:06.527Z,49.30
2023-08-11T14:32:24.009Z,49.08
2023-08-11T14:35:27.342Z,48.79
2023-08-11T14:38:29.410Z,49.57
2023-08-11T14:41:31.534Z,45.73
2023-08-11T14:44:33.665Z,47.28
2023-08-11T14:47:35.826Z,47.76
2023-08-11T14:50:37.990Z,48.74
2023-08-11T14:53:40.108Z,48.57
2023-08-11T14:56:42.961Z,49.34
2023-08-11T14:59:46.021Z,49.53
2023-08-11T15:02:48.129Z,49.17
2023-08-11T15:05:50.395Z,48.32
2023-08-11T15:08:52.525Z,48.58
2023-08-11T15:11:54.627Z,48.57
2023-08-11T15:14:56.724Z,48.73
2023-08-11T15:17:58.891Z,48.06
2023-08-11T15:21:01.228Z,48.66
2023-08-11T15:24:03.689Z,48.98
2023-08-11T15:27:06.094Z,49.03
2023-08-11T15:30:08.690Z,49.55
2023-08-11T15:33:10.866Z,49.67
2023-08-11T15:36:13.062Z,49.44
2023-08-11T15:39:16.382Z,49.30
2023-08-11T15:42:18.674Z,48.61
2023-08-11T15:45:20.743Z,48.80
2023-08-11T15:48:22.820Z,48.76
2023-08-11T15:51:24.925Z,48.96
2023-08-11T15:54:27.012Z,48.86
2023-08-11T15:57:29.080Z,48.99
2023-08-11T16:00:31.885Z,49.09
2023-08-11T16:03:35.761Z,48.85
2023-08-11T16:06:38.002Z,48.89
2023-08-11T16:09:40.111Z,49.08
2023-08-11T16:12:42.175Z,49.11
2023-08-11T16:15:44.262Z,49.15
2023-08-11T16:18:46.888Z,49.66
2023-08-11T16:21:49.152Z,49.95
2023-08-11T16:24:51.488Z,49.93
2023-08-11T16:27:53.544Z,49.66
2023-08-11T16:30:55.722Z,49.60
2023-08-11T16:33:57.851Z,49.85
2023-08-11T16:36:59.900Z,50.09
2023-08-11T16:40:02.055Z,50.11
2023-08-11T16:43:04.726Z,50.27
2023-08-11T16:46:06.942Z,50.47
2023-08-11T16:49:09.224Z,50.66
2023-08-11T16:52:11.810Z,51.04
2023-08-11T16:55:14.127Z,51.01
2023-08-11T16:58:16.458Z,51.05
2023-08-11T17:01:19.615Z,51.17
2023-08-11T17:04:21.842Z,51.21
2023-08-11T17:07:24.065Z,51.29
2023-08-11T17:10:26.151Z,51.27
2023-08-11T17:13:28.324Z,51.38
2023-08-11T17:16:31.542Z,51.46
2023-08-11T17:19:33.908Z,51.48
2023-08-11T17:22:35.986Z,51.72
2023-08-11T17:25:38.080Z,51.78
2023-08-11T17:28:40.219Z,51.81
2023-08-11T17:31:42.699Z,51.80
2023-08-11T17:34:57.257Z,51.88
2023-08-11T17:38:00.426Z,51.91
2023-08-11T17:41:03.118Z,51.91
2023-08-11T17:44:05.520Z,51.98
2023-08-11T17:47:08.802Z,52.01
2023-08-11T17:50:11.418Z,52.05
2023-08-11T17:53:13.520Z,52.09
2023-08-11T17:56:15.651Z,52.23
2023-08-11T17:59:17.951Z,52.21
2023-08-11T18:02:20.114Z,52.20
2023-08-11T18:05:22.205Z,52.26
2023-08-11T18:08:24.273Z,52.33
2023-08-11T18:11:26.520Z,52.39
2023-08-11T18:14:31.759Z,52.40
2023-08-11T18:17:34.447Z,52.39
2023-08-11T18:20:36.565Z,52.53
2023-08-11T18:23:39.519Z,52.53
2023-08-11T18:26:41.608Z,52.55
2023-08-11T18:29:43.856Z,52.56
2023-08-11T18:32:46.388Z,52.63
2023-08-11T18:35:48.647Z,52.70
2023-08-11T18:38:51.252Z,52.76
2023-08-11T18:41:53.404Z,52.73
2023-08-11T18:44:55.571Z,52.79
2023-08-11T18:47:57.747Z,52.80
2023-08-11T18:50:59.914Z,52.75
2023-08-11T18:54:02.043Z,52.72
2023-08-11T18:57:04.277Z,52.81
2023-08-11T19:00:07.720Z,52.84
2023-08-11T19:03:09.864Z,52.88
2023-08-11T19:06:12.075Z,52.89
2023-08-11T19:09:14.157Z,52.91
2023-08-11T19:12:16.311Z,52.93
2023-08-11T19:15:19.160Z,52.97
2023-08-11T19:18:21.386Z,53.04
2023-08-11T19:21:23.482Z,53.06
2023-08-11T19:24:26.940Z,53.15
2023-08-11T19:27:29.110Z,53.18
2023-08-11T19:30:32.869Z,53.32
2023-08-11T19:33:36.190Z,53.28
2023-08-11T19:36:42.328Z,53.33
2023-08-11T19:39:44.479Z,53.49
2023-08-11T19:42:46.624Z,53.76
2023-08-11T19:45:54.262Z,53.49
2023-08-11T19:48:56.590Z,53.66
2023-08-11T19:51:58.783Z,53.62
2023-08-11T19:55:00.862Z,53.88
2023-08-11T19:58:02.962Z,54.06
2023-08-11T20:01:07.046Z,53.78
2023-08-11T20:04:09.186Z,54.41
2023-08-11T20:07:11.527Z,54.21
2023-08-11T20:10:14.097Z,54.47
2023-08-11T20:13:19.464Z,54.34
2023-08-11T20:16:21.607Z,54.03
2023-08-11T20:19:25.129Z,54.20
2023-08-11T20:22:27.283Z,54.06
2023-08-11T20:25:29.613Z,54.10
2023-08-11T20:28:31.831Z,54.14
2023-08-11T20:31:34.405Z,54.20
2023-08-11T20:34:36.665Z,54.13
2023-08-11T20:37:39.034Z,54.17
2023-08-11T20:40:41.194Z,54.22
2023-08-11T20:43:43.397Z,54.31
2023-08-11T20:46:45.502Z,54.39
2023-08-11T20:49:47.648Z,54.59
2023-08-11T20:52:50.009Z,54.81
2023-08-11T20:55:52.131Z,54.78
2023-08-11T20:58:54.302Z,54.80
2023-08-11T21:01:56.856Z,54.84
2023-08-11T21:04:58.948Z,54.94
2023-08-11T21:08:01.529Z,54.87
2023-08-11T21:11:03.599Z,55.10
2023-08-11T21:14:09.600Z,55.20
2023-08-11T21:17:11.715Z,55.20
2023-08-11T21:20:13.929Z,55.34
2023-08-11T21:23:20.305Z,55.46
2023-08-11T21:26:22.921Z,55.47
2023-08-11T21:29:24.997Z,55.58
2023-08-11T21:32:27.192Z,55.61
2023-08-11T21:35:29.298Z,55.71
2023-08-11T21:38:31.451Z,55.76
2023-08-11T21:41:34.632Z,55.78
2023-08-11T21:44:37.435Z,55.81
2023-08-11T21:47:41.791Z,55.87
2023-08-11T21:50:43.969Z,56.73
2023-08-11T21:53:46.108Z,57.91
2023-08-11T21:56:48.323Z,58.32
2023-08-11T21:59:50.436Z,58.83
2023-08-11T22:02:52.591Z,59.08
2023-08-11T22:05:54.826Z,59.19
2023-08-11T22:08:56.975Z,59.06
2023-08-11T22:11:59.121Z,59.44
2023-08-11T22:15:01.238Z,59.39
2023-08-11T22:18:03.532Z,59.54
2023-08-11T22:21:05.663Z,59.36
2023-08-11T22:24:07.960Z,59.37
2023-08-11T22:27:11.139Z,59.75
2023-08-11T22:30:14.406Z,59.86
2023-08-11T22:33:16.920Z,59.89
2023-08-11T22:36:19.081Z,59.99
2023-08-11T22:39:21.271Z,59.93
2023-08-11T22:42:28.225Z,60.12
2023-08-11T22:45:30.339Z,60.19
2023-08-11T22:48:32.478Z,60.13
2023-08-11T22:51:34.676Z,60.19
2023-08-11T22:54:36.990Z,60.06
2023-08-11T22:57:39.110Z,60.27
2023-08-11T23:00:41.433Z,59.90
2023-08-11T23:03:43.692Z,59.41
2023-08-11T23:06:45.819Z,59.11
2023-08-11T23:09:47.908Z,59.16
2023-08-11T23:12:49.982Z,59.25
2023-08-11T23:15:52.178Z,59.24
2023-08-11T23:18:54.285Z,58.48
2023-08-11T23:21:56.416Z,58.29
2023-08-11T23:24:59.226Z,57.88
2023-08-11T23:28:01.295Z,57.92
2023-08-11T23:31:03.395Z,57.78
2023-08-11T23:34:05.681Z,57.92
2023-08-11T23:37:07.794Z,57.54
2023-08-11T23:40:10.827Z,57.12
2023-08-11T23:43:13.633Z,57.02
2023-08-11T23:46:16.308Z,56.71
2023-08-11T23:49:18.501Z,56.64
2023-08-11T23:52:20.714Z,56.84
2023-08-11T23:55:25.688Z,56.48
2023-08-11T23:58:27.839Z,56.22
